Salvage, Canada
Current Conditions -  °F | °C
As of 9:00 PM on Tuesday 25 Nov 2014 (Local Time) from CYQX Reporting Station
Broken Clouds Broken Clouds  
Wind Chill: 52°   Ceiling: 25000
Heat Index: 52°   Visibility: 20mi
Dew Point: 46°   Wind: 23mph
Humidity: 82%   Direction: 250°WSW
Pressure: 29.57"   Gusts: 35mph
Location:  48.67°N, 53.65°W
Report Text: CYQX 260000Z 25020G30KT 20SM FEW180 BKN250 11/08 A2957 RMK AC1CI6 SLP016 DENSITY ALT 500FT
Loading
Personal Weather Stations






























Interactive Weather Map New forecast layout! Learn more

10-Day Weather Forecast

Advertisements
Track Severe Weather on mobile